sensor_id;sensor_type;location;lat;lon;timestamp;temperature;humidity
18446;DHT22;9352;50.888;4.466;2023-05-16T00:01:12;9.90;99.90
18446;DHT22;9352;50.888;4.466;2023-05-16T00:03:39;9.90;99.90
18446;DHT22;9352;50.888;4.466;2023-05-16T00:06:08;9.80;99.90
18446;DHT22;9352;50.888;4.466;2023-05-16T00:08:35;9.80;99.90
18446;DHT22;9352;50.888;4.466;2023-05-16T00:11:02;9.80;99.90
18446;DHT22;9352;50.888;4.466;2023-05-16T00:13:29;9.70;99.90
18446;DHT22;9352;50.888;4.466;2023-05-16T00:15:57;9.70;99.90
18446;DHT22;9352;50.888;4.466;2023-05-16T00:18:26;9.70;99.90
18446;DHT22;9352;50.888;4.466;2023-05-16T00:20:53;9.70;99.90
18446;DHT22;9352;50.888;4.466;2023-05-16T00:23:22;9.70;99.90
18446;DHT22;9352;50.888;4.466;2023-05-16T00:25:48;9.60;99.90
18446;DHT22;9352;50.888;4.466;2023-05-16T00:28:16;9.70;99.90
18446;DHT22;9352;50.888;4.466;2023-05-16T00:30:42;9.60;99.90
18446;DHT22;9352;50.888;4.466;2023-05-16T00:33:09;9.50;99.90
18446;DHT22;9352;50.888;4.466;2023-05-16T00:35:36;9.50;99.90
18446;DHT22;9352;50.888;4.466;2023-05-16T00:38:03;9.50;99.90
18446;DHT22;9352;50.888;4.466;2023-05-16T00:40:31;9.50;99.90
18446;DHT22;9352;50.888;4.466;2023-05-16T00:42:58;9.50;99.90
18446;DHT22;9352;50.888;4.466;2023-05-16T00:45:25;9.50;99.90
18446;DHT22;9352;50.888;4.466;2023-05-16T00:47:52;9.50;99.90
18446;DHT22;9352;50.888;4.466;2023-05-16T00:50:19;9.40;99.90
18446;DHT22;9352;50.888;4.466;2023-05-16T00:52:46;9.40;99.90
18446;DHT22;9352;50.888;4.466;2023-05-16T00:55:13;9.40;99.90
18446;DHT22;9352;50.888;4.466;2023-05-16T00:57:41;9.40;99.90
18446;DHT22;9352;50.888;4.466;2023-05-16T01:00:09;9.30;99.90
18446;DHT22;9352;50.888;4.466;2023-05-16T01:02:37;9.30;99.90
18446;DHT22;9352;50.888;4.466;2023-05-16T01:05:04;9.30;99.90
18446;DHT22;9352;50.888;4.466;2023-05-16T01:07:31;9.30;99.90
18446;DHT22;9352;50.888;4.466;2023-05-16T01:09:58;9.20;99.90
18446;DHT22;9352;50.888;4.466;2023-05-16T01:12:32;9.20;99.90
18446;DHT22;9352;50.888;4.466;2023-05-16T01:15:08;9.10;99.90
18446;DHT22;9352;50.888;4.466;2023-05-16T01:17:42;9.20;99.90
18446;DHT22;9352;50.888;4.466;2023-05-16T01:20:15;9.10;99.90
18446;DHT22;9352;50.888;4.466;2023-05-16T01:22:51;9.10;99.90
18446;DHT22;9352;50.888;4.466;2023-05-16T01:25:31;9.10;99.90
18446;DHT22;9352;50.888;4.466;2023-05-16T01:28:01;9.00;99.90
18446;DHT22;9352;50.888;4.466;2023-05-16T01:30:32;9.00;99.90
18446;DHT22;9352;50.888;4.466;2023-05-16T01:32:59;9.00;99.90
18446;DHT22;9352;50.888;4.466;2023-05-16T01:35:26;9.00;99.90
18446;DHT22;9352;50.888;4.466;2023-05-16T01:37:58;9.00;99.90
18446;DHT22;9352;50.888;4.466;2023-05-16T01:40:40;8.90;99.90
18446;DHT22;9352;50.888;4.466;2023-05-16T01:43:14;8.90;99.90
18446;DHT22;9352;50.888;4.466;2023-05-16T01:45:54;8.90;99.90
18446;DHT22;9352;50.888;4.466;2023-05-16T01:48:28;8.80;99.90
18446;DHT22;9352;50.888;4.466;2023-05-16T01:50:57;8.80;99.90
18446;DHT22;9352;50.888;4.466;2023-05-16T01:53:27;8.70;99.90
18446;DHT22;9352;50.888;4.466;2023-05-16T01:55:56;8.70;99.90
18446;DHT22;9352;50.888;4.466;2023-05-16T01:58:29;8.70;99.90
18446;DHT22;9352;50.888;4.466;2023-05-16T02:01:00;8.60;99.90
18446;DHT22;9352;50.888;4.466;2023-05-16T02:03:28;8.60;99.90
18446;DHT22;9352;50.888;4.466;2023-05-16T02:05:55;8.60;99.90
18446;DHT22;9352;50.888;4.466;2023-05-16T02:08:22;8.60;99.90
18446;DHT22;9352;50.888;4.466;2023-05-16T02:10:49;8.60;99.90
18446;DHT22;9352;50.888;4.466;2023-05-16T02:13:16;8.60;99.90
18446;DHT22;9352;50.888;4.466;2023-05-16T02:15:44;8.60;99.90
18446;DHT22;9352;50.888;4.466;2023-05-16T02:18:11;8.50;99.90
18446;DHT22;9352;50.888;4.466;2023-05-16T02:20:38;8.50;99.90
18446;DHT22;9352;50.888;4.466;2023-05-16T02:23:05;8.50;99.90
18446;DHT22;9352;50.888;4.466;2023-05-16T02:25:32;8.50;99.90
18446;DHT22;9352;50.888;4.466;2023-05-16T02:27:59;8.40;99.90
18446;DHT22;9352;50.888;4.466;2023-05-16T02:30:26;8.40;99.90
18446;DHT22;9352;50.888;4.466;2023-05-16T02:32:54;8.40;99.90
18446;DHT22;9352;50.888;4.466;2023-05-16T02:35:21;8.40;99.90
18446;DHT22;9352;50.888;4.466;2023-05-16T02:37:48;8.40;99.90
18446;DHT22;9352;50.888;4.466;2023-05-16T02:40:15;8.30;99.90
18446;DHT22;9352;50.888;4.466;2023-05-16T02:42:42;8.30;99.90
18446;DHT22;9352;50.888;4.466;2023-05-16T02:45:09;8.30;99.90
18446;DHT22;9352;50.888;4.466;2023-05-16T02:47:36;8.30;99.90
18446;DHT22;9352;50.888;4.466;2023-05-16T02:50:05;8.30;99.90
18446;DHT22;9352;50.888;4.466;2023-05-16T02:52:32;8.30;99.90
18446;DHT22;9352;50.888;4.466;2023-05-16T02:54:59;8.20;99.90
18446;DHT22;9352;50.888;4.466;2023-05-16T02:57:26;8.20;99.90
18446;DHT22;9352;50.888;4.466;2023-05-16T02:59:53;8.20;99.90
18446;DHT22;9352;50.888;4.466;2023-05-16T03:02:21;8.20;99.90
18446;DHT22;9352;50.888;4.466;2023-05-16T03:04:48;8.20;99.90
18446;DHT22;9352;50.888;4.466;2023-05-16T03:07:16;8.10;99.90
18446;DHT22;9352;50.888;4.466;2023-05-16T03:09:43;8.10;99.90
18446;DHT22;9352;50.888;4.466;2023-05-16T03:12:10;8.10;99.90
18446;DHT22;9352;50.888;4.466;2023-05-16T03:14:36;8.10;99.90
18446;DHT22;9352;50.888;4.466;2023-05-16T03:17:03;8.00;99.90
18446;DHT22;9352;50.888;4.466;2023-05-16T03:19:31;8.00;99.90
18446;DHT22;9352;50.888;4.466;2023-05-16T03:21:57;8.00;99.90
18446;DHT22;9352;50.888;4.466;2023-05-16T03:24:26;8.00;99.90
18446;DHT22;9352;50.888;4.466;2023-05-16T03:26:52;8.00;99.90
18446;DHT22;9352;50.888;4.466;2023-05-16T03:29:19;8.00;99.90
18446;DHT22;9352;50.888;4.466;2023-05-16T03:31:46;8.00;99.90
18446;DHT22;9352;50.888;4.466;2023-05-16T03:34:13;7.90;99.90
18446;DHT22;9352;50.888;4.466;2023-05-16T03:36:40;7.90;99.90
18446;DHT22;9352;50.888;4.466;2023-05-16T03:39:07;7.90;99.90
18446;DHT22;9352;50.888;4.466;2023-05-16T03:41:36;7.90;99.90
18446;DHT22;9352;50.888;4.466;2023-05-16T03:44:03;8.00;99.90
18446;DHT22;9352;50.888;4.466;2023-05-16T03:46:30;7.90;99.90
18446;DHT22;9352;50.888;4.466;2023-05-16T03:48:57;7.90;99.90
18446;DHT22;9352;50.888;4.466;2023-05-16T03:51:24;7.90;99.90
18446;DHT22;9352;50.888;4.466;2023-05-16T03:53:50;7.90;99.90
18446;DHT22;9352;50.888;4.466;2023-05-16T03:56:17;7.90;99.90
18446;DHT22;9352;50.888;4.466;2023-05-16T03:58:45;7.90;99.90
18446;DHT22;9352;50.888;4.466;2023-05-16T04:01:12;7.90;99.90
18446;DHT22;9352;50.888;4.466;2023-05-16T04:03:39;7.80;99.90
18446;DHT22;9352;50.888;4.466;2023-05-16T04:06:07;7.90;99.90
18446;DHT22;9352;50.888;4.466;2023-05-16T04:08:33;7.90;99.90
18446;DHT22;9352;50.888;4.466;2023-05-16T04:11:00;7.90;99.90
18446;DHT22;9352;50.888;4.466;2023-05-16T04:13:27;7.80;99.90
18446;DHT22;9352;50.888;4.466;2023-05-16T04:15:55;7.90;99.90
18446;DHT22;9352;50.888;4.466;2023-05-16T04:18:22;7.90;99.90
18446;DHT22;9352;50.888;4.466;2023-05-16T04:20:49;7.90;99.90
18446;DHT22;9352;50.888;4.466;2023-05-16T04:23:16;7.90;99.90
18446;DHT22;9352;50.888;4.466;2023-05-16T04:25:43;8.00;99.90
18446;DHT22;9352;50.888;4.466;2023-05-16T04:28:10;8.00;99.90
18446;DHT22;9352;50.888;4.466;2023-05-16T04:30:38;8.00;99.90
18446;DHT22;9352;50.888;4.466;2023-05-16T04:33:06;8.00;99.90
18446;DHT22;9352;50.888;4.466;2023-05-16T04:35:33;8.00;99.90
18446;DHT22;9352;50.888;4.466;2023-05-16T04:38:00;8.00;99.90
18446;DHT22;9352;50.888;4.466;2023-05-16T04:40:26;8.10;99.90
18446;DHT22;9352;50.888;4.466;2023-05-16T04:42:53;8.10;99.90
18446;DHT22;9352;50.888;4.466;2023-05-16T04:45:20;8.10;99.90
18446;DHT22;9352;50.888;4.466;2023-05-16T04:47:47;8.10;99.90
18446;DHT22;9352;50.888;4.466;2023-05-16T04:50:17;8.10;99.90
18446;DHT22;9352;50.888;4.466;2023-05-16T04:52:44;8.10;99.90
18446;DHT22;9352;50.888;4.466;2023-05-16T04:55:11;8.20;99.90
18446;DHT22;9352;50.888;4.466;2023-05-16T04:57:38;8.20;99.90
18446;DHT22;9352;50.888;4.466;2023-05-16T05:00:06;8.20;99.90
18446;DHT22;9352;50.888;4.466;2023-05-16T05:02:35;8.20;99.90
18446;DHT22;9352;50.888;4.466;2023-05-16T05:05:02;8.20;99.90
18446;DHT22;9352;50.888;4.466;2023-05-16T05:07:31;8.20;99.90
18446;DHT22;9352;50.888;4.466;2023-05-16T05:09:58;8.30;99.90
18446;DHT22;9352;50.888;4.466;2023-05-16T05:12:25;8.30;99.90
18446;DHT22;9352;50.888;4.466;2023-05-16T05:14:53;8.40;99.90
18446;DHT22;9352;50.888;4.466;2023-05-16T05:17:20;8.50;99.90
18446;DHT22;9352;50.888;4.466;2023-05-16T05:19:47;8.50;99.90
18446;DHT22;9352;50.888;4.466;2023-05-16T05:22:14;8.50;99.90
18446;DHT22;9352;50.888;4.466;2023-05-16T05:24:42;8.60;99.90
18446;DHT22;9352;50.888;4.466;2023-05-16T05:27:09;8.80;99.90
18446;DHT22;9352;50.888;4.466;2023-05-16T05:29:36;8.70;99.90
18446;DHT22;9352;50.888;4.466;2023-05-16T05:32:03;8.80;99.90
18446;DHT22;9352;50.888;4.466;2023-05-16T05:34:30;8.80;99.90
18446;DHT22;9352;50.888;4.466;2023-05-16T05:36:57;8.90;99.90
18446;DHT22;9352;50.888;4.466;2023-05-16T05:39:24;9.00;99.90
18446;DHT22;9352;50.888;4.466;2023-05-16T05:41:53;9.00;99.90
18446;DHT22;9352;50.888;4.466;2023-05-16T05:44:20;9.10;99.90
18446;DHT22;9352;50.888;4.466;2023-05-16T05:46:47;9.20;99.90
18446;DHT22;9352;50.888;4.466;2023-05-16T05:49:14;9.30;99.90
18446;DHT22;9352;50.888;4.466;2023-05-16T05:51:41;9.30;99.90
18446;DHT22;9352;50.888;4.466;2023-05-16T05:54:08;9.40;99.90
18446;DHT22;9352;50.888;4.466;2023-05-16T05:56:34;9.50;99.90
18446;DHT22;9352;50.888;4.466;2023-05-16T05:59:03;9.50;99.90
18446;DHT22;9352;50.888;4.466;2023-05-16T06:01:30;9.60;99.90
18446;DHT22;9352;50.888;4.466;2023-05-16T06:03:56;9.70;99.90
18446;DHT22;9352;50.888;4.466;2023-05-16T06:06:23;9.70;99.90
18446;DHT22;9352;50.888;4.466;2023-05-16T06:08:50;9.70;99.90
18446;DHT22;9352;50.888;4.466;2023-05-16T06:11:17;9.80;99.90
18446;DHT22;9352;50.888;4.466;2023-05-16T06:13:44;9.90;99.90
18446;DHT22;9352;50.888;4.466;2023-05-16T06:16:12;10.00;99.90
18446;DHT22;9352;50.888;4.466;2023-05-16T06:18:39;10.00;99.90
18446;DHT22;9352;50.888;4.466;2023-05-16T06:21:06;10.20;99.90
18446;DHT22;9352;50.888;4.466;2023-05-16T06:23:34;10.30;99.90
18446;DHT22;9352;50.888;4.466;2023-05-16T06:26:01;10.40;99.90
18446;DHT22;9352;50.888;4.466;2023-05-16T06:28:28;10.40;99.90
18446;DHT22;9352;50.888;4.466;2023-05-16T06:30:55;10.60;99.90
18446;DHT22;9352;50.888;4.466;2023-05-16T06:33:23;10.60;99.90
18446;DHT22;9352;50.888;4.466;2023-05-16T06:35:51;10.80;99.90
18446;DHT22;9352;50.888;4.466;2023-05-16T06:38:18;10.90;99.90
18446;DHT22;9352;50.888;4.466;2023-05-16T06:40:45;10.90;99.90
18446;DHT22;9352;50.888;4.466;2023-05-16T06:43:12;11.10;99.90
18446;DHT22;9352;50.888;4.466;2023-05-16T06:45:39;11.10;99.90
18446;DHT22;9352;50.888;4.466;2023-05-16T06:48:06;11.20;99.90
18446;DHT22;9352;50.888;4.466;2023-05-16T06:50:35;11.20;99.90
18446;DHT22;9352;50.888;4.466;2023-05-16T06:53:02;11.40;99.90
18446;DHT22;9352;50.888;4.466;2023-05-16T06:55:29;11.70;99.90
18446;DHT22;9352;50.888;4.466;2023-05-16T06:57:56;11.70;99.90
18446;DHT22;9352;50.888;4.466;2023-05-16T07:00:26;12.00;99.90
18446;DHT22;9352;50.888;4.466;2023-05-16T07:02:52;12.20;99.90
18446;DHT22;9352;50.888;4.466;2023-05-16T07:05:19;12.30;99.90
18446;DHT22;9352;50.888;4.466;2023-05-16T07:07:47;12.50;99.90
18446;DHT22;9352;50.888;4.466;2023-05-16T07:10:15;12.70;99.90
18446;DHT22;9352;50.888;4.466;2023-05-16T07:12:42;12.80;99.90
18446;DHT22;9352;50.888;4.466;2023-05-16T07:15:09;12.70;99.90
18446;DHT22;9352;50.888;4.466;2023-05-16T07:17:37;13.10;99.90
18446;DHT22;9352;50.888;4.466;2023-05-16T07:20:05;13.20;99.90
18446;DHT22;9352;50.888;4.466;2023-05-16T07:22:32;12.70;99.90
18446;DHT22;9352;50.888;4.466;2023-05-16T07:25:01;12.70;99.90
18446;DHT22;9352;50.888;4.466;2023-05-16T07:27:28;12.90;99.90
18446;DHT22;9352;50.888;4.466;2023-05-16T07:29:56;13.30;99.90
18446;DHT22;9352;50.888;4.466;2023-05-16T07:32:23;13.60;99.90
18446;DHT22;9352;50.888;4.466;2023-05-16T07:34:50;13.70;99.90
18446;DHT22;9352;50.888;4.466;2023-05-16T07:37:17;13.80;99.90
18446;DHT22;9352;50.888;4.466;2023-05-16T07:39:45;13.40;99.90
18446;DHT22;9352;50.888;4.466;2023-05-16T07:42:13;13.30;99.90
18446;DHT22;9352;50.888;4.466;2023-05-16T07:44:40;13.50;99.90
18446;DHT22;9352;50.888;4.466;2023-05-16T07:47:07;13.60;99.90
18446;DHT22;9352;50.888;4.466;2023-05-16T07:49:34;14.00;99.90
18446;DHT22;9352;50.888;4.466;2023-05-16T07:52:00;14.30;99.90
18446;DHT22;9352;50.888;4.466;2023-05-16T07:54:27;14.50;99.90
18446;DHT22;9352;50.888;4.466;2023-05-16T07:56:54;14.20;99.90
18446;DHT22;9352;50.888;4.466;2023-05-16T07:59:22;14.10;99.90
18446;DHT22;9352;50.888;4.466;2023-05-16T08:01:50;14.00;99.90
18446;DHT22;9352;50.888;4.466;2023-05-16T08:04:17;13.50;99.90
18446;DHT22;9352;50.888;4.466;2023-05-16T08:06:44;13.00;99.90
18446;DHT22;9352;50.888;4.466;2023-05-16T08:09:11;12.90;99.90
18446;DHT22;9352;50.888;4.466;2023-05-16T08:11:38;12.80;99.90
18446;DHT22;9352;50.888;4.466;2023-05-16T08:14:05;12.80;99.90
18446;DHT22;9352;50.888;4.466;2023-05-16T08:16:33;12.70;99.90
18446;DHT22;9352;50.888;4.466;2023-05-16T08:19:00;12.60;99.90
18446;DHT22;9352;50.888;4.466;2023-05-16T08:21:27;12.80;99.90
18446;DHT22;9352;50.888;4.466;2023-05-16T08:23:55;12.80;99.90
18446;DHT22;9352;50.888;4.466;2023-05-16T08:26:22;12.80;99.90
18446;DHT22;9352;50.888;4.466;2023-05-16T08:28:49;12.70;99.90
18446;DHT22;9352;50.888;4.466;2023-05-16T08:31:16;12.70;99.90
18446;DHT22;9352;50.888;4.466;2023-05-16T08:33:44;12.80;99.90
18446;DHT22;9352;50.888;4.466;2023-05-16T08:36:11;12.70;99.90
18446;DHT22;9352;50.888;4.466;2023-05-16T08:38:40;13.00;99.90
18446;DHT22;9352;50.888;4.466;2023-05-16T08:41:07;13.30;99.90
18446;DHT22;9352;50.888;4.466;2023-05-16T08:43:34;13.30;99.90
18446;DHT22;9352;50.888;4.466;2023-05-16T08:46:01;13.40;99.90
18446;DHT22;9352;50.888;4.466;2023-05-16T08:48:30;13.40;99.90
18446;DHT22;9352;50.888;4.466;2023-05-16T08:50:59;13.60;99.90
18446;DHT22;9352;50.888;4.466;2023-05-16T08:53:31;13.80;99.90
18446;DHT22;9352;50.888;4.466;2023-05-16T08:56:03;13.70;99.90
18446;DHT22;9352;50.888;4.466;2023-05-16T08:58:30;13.40;99.90
18446;DHT22;9352;50.888;4.466;2023-05-16T09:00:57;13.30;99.90
18446;DHT22;9352;50.888;4.466;2023-05-16T09:03:24;13.20;99.90
18446;DHT22;9352;50.888;4.466;2023-05-16T09:05:53;13.20;99.90
18446;DHT22;9352;50.888;4.466;2023-05-16T09:08:21;13.20;99.90
18446;DHT22;9352;50.888;4.466;2023-05-16T09:10:49;13.50;99.90
18446;DHT22;9352;50.888;4.466;2023-05-16T09:13:15;13.50;99.90
18446;DHT22;9352;50.888;4.466;2023-05-16T09:15:43;13.50;99.90
18446;DHT22;9352;50.888;4.466;2023-05-16T09:18:11;13.60;99.90
18446;DHT22;9352;50.888;4.466;2023-05-16T09:20:43;13.90;99.90
18446;DHT22;9352;50.888;4.466;2023-05-16T09:23:12;13.90;99.90
18446;DHT22;9352;50.888;4.466;2023-05-16T09:25:41;14.00;99.90
18446;DHT22;9352;50.888;4.466;2023-05-16T09:28:09;14.30;99.90
18446;DHT22;9352;50.888;4.466;2023-05-16T09:30:37;14.60;99.90
18446;DHT22;9352;50.888;4.466;2023-05-16T09:33:05;15.10;99.90
18446;DHT22;9352;50.888;4.466;2023-05-16T09:35:32;15.10;99.90
18446;DHT22;9352;50.888;4.466;2023-05-16T09:37:59;15.40;99.90
18446;DHT22;9352;50.888;4.466;2023-05-16T09:40:26;15.30;99.90
18446;DHT22;9352;50.888;4.466;2023-05-16T09:43:01;15.20;99.90
18446;DHT22;9352;50.888;4.466;2023-05-16T09:45:29;15.40;99.90
18446;DHT22;9352;50.888;4.466;2023-05-16T09:48:01;15.90;99.90
18446;DHT22;9352;50.888;4.466;2023-05-16T09:50:28;15.60;99.90
18446;DHT22;9352;50.888;4.466;2023-05-16T09:52:57;16.10;99.90
18446;DHT22;9352;50.888;4.466;2023-05-16T09:55:24;16.50;99.90
18446;DHT22;9352;50.888;4.466;2023-05-16T09:57:51;17.00;99.90
18446;DHT22;9352;50.888;4.466;2023-05-16T10:00:20;16.70;99.90
18446;DHT22;9352;50.888;4.466;2023-05-16T10:02:48;16.50;99.90
18446;DHT22;9352;50.888;4.466;2023-05-16T10:05:16;16.40;99.90
18446;DHT22;9352;50.888;4.466;2023-05-16T10:07:43;16.00;99.90
18446;DHT22;9352;50.888;4.466;2023-05-16T10:10:12;16.30;99.90
18446;DHT22;9352;50.888;4.466;2023-05-16T10:12:40;17.20;99.90
18446;DHT22;9352;50.888;4.466;2023-05-16T10:15:08;18.60;99.90
18446;DHT22;9352;50.888;4.466;2023-05-16T10:17:38;18.70;99.90
18446;DHT22;9352;50.888;4.466;2023-05-16T10:20:07;19.60;99.90
18446;DHT22;9352;50.888;4.466;2023-05-16T10:22:37;19.20;99.90
18446;DHT22;9352;50.888;4.466;2023-05-16T10:25:08;18.70;99.90
18446;DHT22;9352;50.888;4.466;2023-05-16T10:27:38;18.20;99.90
18446;DHT22;9352;50.888;4.466;2023-05-16T10:30:07;17.10;99.90
18446;DHT22;9352;50.888;4.466;2023-05-16T10:32:37;16.70;99.90
18446;DHT22;9352;50.888;4.466;2023-05-16T10:35:04;16.90;99.90
18446;DHT22;9352;50.888;4.466;2023-05-16T10:37:32;17.10;99.90
18446;DHT22;9352;50.888;4.466;2023-05-16T10:40:02;17.60;99.90
18446;DHT22;9352;50.888;4.466;2023-05-16T10:42:31;17.70;99.90
18446;DHT22;9352;50.888;4.466;2023-05-16T10:45:08;18.90;99.90
18446;DHT22;9352;50.888;4.466;2023-05-16T10:47:50;19.10;99.90
18446;DHT22;9352;50.888;4.466;2023-05-16T10:50:30;19.80;99.90
18446;DHT22;9352;50.888;4.466;2023-05-16T10:53:13;19.50;99.90
18446;DHT22;9352;50.888;4.466;2023-05-16T10:55:44;18.50;99.90
18446;DHT22;9352;50.888;4.466;2023-05-16T10:58:11;18.50;99.90
18446;DHT22;9352;50.888;4.466;2023-05-16T11:00:38;18.30;99.90
18446;DHT22;9352;50.888;4.466;2023-05-16T11:03:21;17.40;99.90
18446;DHT22;9352;50.888;4.466;2023-05-16T11:05:51;17.50;99.90
18446;DHT22;9352;50.888;4.466;2023-05-16T11:08:18;17.10;99.90
18446;DHT22;9352;50.888;4.466;2023-05-16T11:10:45;17.10;99.90
18446;DHT22;9352;50.888;4.466;2023-05-16T11:13:13;16.90;99.90
18446;DHT22;9352;50.888;4.466;2023-05-16T11:15:44;17.80;99.90
18446;DHT22;9352;50.888;4.466;2023-05-16T11:18:15;18.40;99.90
18446;DHT22;9352;50.888;4.466;2023-05-16T11:20:43;18.10;99.90
18446;DHT22;9352;50.888;4.466;2023-05-16T11:23:20;18.00;99.90
18446;DHT22;9352;50.888;4.466;2023-05-16T11:25:49;18.40;99.90
18446;DHT22;9352;50.888;4.466;2023-05-16T11:28:17;18.30;99.90
18446;DHT22;9352;50.888;4.466;2023-05-16T11:30:47;18.30;99.90
18446;DHT22;9352;50.888;4.466;2023-05-16T11:33:15;19.40;99.90
18446;DHT22;9352;50.888;4.466;2023-05-16T11:35:42;18.20;99.90
18446;DHT22;9352;50.888;4.466;2023-05-16T11:38:13;17.90;99.90
18446;DHT22;9352;50.888;4.466;2023-05-16T11:40:42;17.80;99.90
18446;DHT22;9352;50.888;4.466;2023-05-16T11:43:10;17.60;99.90
18446;DHT22;9352;50.888;4.466;2023-05-16T11:45:37;17.70;99.90
18446;DHT22;9352;50.888;4.466;2023-05-16T11:48:05;18.20;99.90
18446;DHT22;9352;50.888;4.466;2023-05-16T11:50:34;18.80;99.90
18446;DHT22;9352;50.888;4.466;2023-05-16T11:53:01;19.40;99.90
18446;DHT22;9352;50.888;4.466;2023-05-16T11:55:29;20.00;99.90
18446;DHT22;9352;50.888;4.466;2023-05-16T11:57:57;19.40;99.90
18446;DHT22;9352;50.888;4.466;2023-05-16T12:00:26;18.70;99.90
18446;DHT22;9352;50.888;4.466;2023-05-16T12:02:54;18.10;99.90
18446;DHT22;9352;50.888;4.466;2023-05-16T12:05:21;18.10;99.90
18446;DHT22;9352;50.888;4.466;2023-05-16T12:07:52;17.90;99.90
18446;DHT22;9352;50.888;4.466;2023-05-16T12:10:19;18.00;99.90
18446;DHT22;9352;50.888;4.466;2023-05-16T12:12:47;18.60;99.90
18446;DHT22;9352;50.888;4.466;2023-05-16T12:15:16;18.60;99.90
18446;DHT22;9352;50.888;4.466;2023-05-16T12:17:44;18.30;99.90
18446;DHT22;9352;50.888;4.466;2023-05-16T12:20:12;18.80;99.90
18446;DHT22;9352;50.888;4.466;2023-05-16T12:22:41;18.50;99.90
18446;DHT22;9352;50.888;4.466;2023-05-16T12:25:26;18.90;99.90
18446;DHT22;9352;50.888;4.466;2023-05-16T12:27:53;18.60;99.90
18446;DHT22;9352;50.888;4.466;2023-05-16T12:30:21;18.70;99.90
18446;DHT22;9352;50.888;4.466;2023-05-16T12:32:54;19.60;99.90
18446;DHT22;9352;50.888;4.466;2023-05-16T12:35:21;19.60;99.90
18446;DHT22;9352;50.888;4.466;2023-05-16T12:37:48;19.40;99.90
18446;DHT22;9352;50.888;4.466;2023-05-16T12:40:16;19.60;99.90
18446;DHT22;9352;50.888;4.466;2023-05-16T12:42:48;18.50;99.90
18446;DHT22;9352;50.888;4.466;2023-05-16T12:45:16;18.20;99.90
18446;DHT22;9352;50.888;4.466;2023-05-16T12:47:43;18.10;99.90
18446;DHT22;9352;50.888;4.466;2023-05-16T12:50:10;17.60;99.90
18446;DHT22;9352;50.888;4.466;2023-05-16T12:52:46;17.80;99.90
18446;DHT22;9352;50.888;4.466;2023-05-16T12:55:15;17.80;99.90
18446;DHT22;9352;50.888;4.466;2023-05-16T12:57:42;18.10;99.90
18446;DHT22;9352;50.888;4.466;2023-05-16T13:00:15;19.00;99.90
18446;DHT22;9352;50.888;4.466;2023-05-16T13:02:43;19.00;99.90
18446;DHT22;9352;50.888;4.466;2023-05-16T13:05:10;18.80;99.90
18446;DHT22;9352;50.888;4.466;2023-05-16T13:07:38;18.40;99.90
18446;DHT22;9352;50.888;4.466;2023-05-16T13:10:06;18.60;99.90
18446;DHT22;9352;50.888;4.466;2023-05-16T13:12:34;18.50;99.90
18446;DHT22;9352;50.888;4.466;2023-05-16T13:15:01;18.50;99.90
18446;DHT22;9352;50.888;4.466;2023-05-16T13:17:30;18.40;99.90
18446;DHT22;9352;50.888;4.466;2023-05-16T13:19:57;18.20;99.90
18446;DHT22;9352;50.888;4.466;2023-05-16T13:22:23;18.10;99.90
18446;DHT22;9352;50.888;4.466;2023-05-16T13:24:50;19.30;99.90
18446;DHT22;9352;50.888;4.466;2023-05-16T13:27:17;20.00;99.90
18446;DHT22;9352;50.888;4.466;2023-05-16T13:29:44;20.90;99.90
18446;DHT22;9352;50.888;4.466;2023-05-16T13:32:12;20.80;99.90
18446;DHT22;9352;50.888;4.466;2023-05-16T13:34:40;19.70;99.90
18446;DHT22;9352;50.888;4.466;2023-05-16T13:37:07;19.60;99.90
18446;DHT22;9352;50.888;4.466;2023-05-16T13:39:34;20.10;99.90
18446;DHT22;9352;50.888;4.466;2023-05-16T13:42:00;22.10;99.90
18446;DHT22;9352;50.888;4.466;2023-05-16T13:44:28;21.40;99.90
18446;DHT22;9352;50.888;4.466;2023-05-16T13:46:55;20.80;99.90
18446;DHT22;9352;50.888;4.466;2023-05-16T13:49:22;21.60;99.90
18446;DHT22;9352;50.888;4.466;2023-05-16T13:51:50;21.20;99.90
18446;DHT22;9352;50.888;4.466;2023-05-16T13:54:17;21.60;99.90
18446;DHT22;9352;50.888;4.466;2023-05-16T13:56:44;20.60;99.90
18446;DHT22;9352;50.888;4.466;2023-05-16T13:59:11;19.70;99.90
18446;DHT22;9352;50.888;4.466;2023-05-16T14:01:38;19.30;99.90
18446;DHT22;9352;50.888;4.466;2023-05-16T14:04:06;19.80;99.90
18446;DHT22;9352;50.888;4.466;2023-05-16T14:06:33;21.00;99.90
18446;DHT22;9352;50.888;4.466;2023-05-16T14:09:01;21.90;99.90
18446;DHT22;9352;50.888;4.466;2023-05-16T14:11:29;21.80;99.90
18446;DHT22;9352;50.888;4.466;2023-05-16T14:13:56;21.50;99.90
18446;DHT22;9352;50.888;4.466;2023-05-16T14:16:23;22.10;99.90
18446;DHT22;9352;50.888;4.466;2023-05-16T14:18:50;22.00;99.90
18446;DHT22;9352;50.888;4.466;2023-05-16T14:21:17;23.30;99.90
18446;DHT22;9352;50.888;4.466;2023-05-16T14:23:44;23.90;99.40
18446;DHT22;9352;50.888;4.466;2023-05-16T14:26:12;22.90;99.50
18446;DHT22;9352;50.888;4.466;2023-05-16T14:28:39;24.40;99.90
18446;DHT22;9352;50.888;4.466;2023-05-16T14:31:06;25.00;98.10
18446;DHT22;9352;50.888;4.466;2023-05-16T14:33:33;24.40;97.40
18446;DHT22;9352;50.888;4.466;2023-05-16T14:36:00;22.60;97.30
18446;DHT22;9352;50.888;4.466;2023-05-16T14:38:27;22.10;98.40
18446;DHT22;9352;50.888;4.466;2023-05-16T14:40:54;23.00;97.90
18446;DHT22;9352;50.888;4.466;2023-05-16T14:43:22;24.00;97.10
18446;DHT22;9352;50.888;4.466;2023-05-16T14:45:49;25.00;94.70
18446;DHT22;9352;50.888;4.466;2023-05-16T14:48:16;25.70;93.90
18446;DHT22;9352;50.888;4.466;2023-05-16T14:50:43;24.80;93.90
18446;DHT22;9352;50.888;4.466;2023-05-16T14:53:10;27.10;93.00
18446;DHT22;9352;50.888;4.466;2023-05-16T14:55:37;27.20;89.40
18446;DHT22;9352;50.888;4.466;2023-05-16T14:58:04;26.00;90.40
18446;DHT22;9352;50.888;4.466;2023-05-16T15:00:33;27.60;89.00
18446;DHT22;9352;50.888;4.466;2023-05-16T15:03:00;27.50;88.70
18446;DHT22;9352;50.888;4.466;2023-05-16T15:05:27;29.90;82.60
18446;DHT22;9352;50.888;4.466;2023-05-16T15:07:54;27.90;84.70
18446;DHT22;9352;50.888;4.466;2023-05-16T15:10:21;27.50;81.60
18446;DHT22;9352;50.888;4.466;2023-05-16T15:12:48;27.10;84.40
18446;DHT22;9352;50.888;4.466;2023-05-16T15:15:15;28.20;81.70
18446;DHT22;9352;50.888;4.466;2023-05-16T15:17:43;28.00;81.40
18446;DHT22;9352;50.888;4.466;2023-05-16T15:20:11;27.80;80.80
18446;DHT22;9352;50.888;4.466;2023-05-16T15:22:38;27.40;79.30
18446;DHT22;9352;50.888;4.466;2023-05-16T15:25:06;26.60;78.60
18446;DHT22;9352;50.888;4.466;2023-05-16T15:27:33;26.70;80.40
18446;DHT22;9352;50.888;4.466;2023-05-16T15:30:00;27.50;77.10
18446;DHT22;9352;50.888;4.466;2023-05-16T15:32:27;25.90;79.20
18446;DHT22;9352;50.888;4.466;2023-05-16T15:34:56;24.30;81.40
18446;DHT22;9352;50.888;4.466;2023-05-16T15:37:23;25.30;82.60
18446;DHT22;9352;50.888;4.466;2023-05-16T15:39:50;25.30;81.90
18446;DHT22;9352;50.888;4.466;2023-05-16T15:42:17;26.10;79.30
18446;DHT22;9352;50.888;4.466;2023-05-16T15:44:45;27.40;78.00
18446;DHT22;9352;50.888;4.466;2023-05-16T15:47:12;27.60;76.60
18446;DHT22;9352;50.888;4.466;2023-05-16T15:49:39;27.30;77.00
18446;DHT22;9352;50.888;4.466;2023-05-16T15:52:08;28.60;75.30
18446;DHT22;9352;50.888;4.466;2023-05-16T15:54:35;28.90;72.50
18446;DHT22;9352;50.888;4.466;2023-05-16T15:57:02;28.00;74.60